Windom, Texas
Current Conditions -  °F | °C
As of 2:15 PM on Thursday 18 Dec 2014 (Local Time) from KPRX Reporting Station
Overcast Overcast  
Wind Chill: 41°   Ceiling: 400
Heat Index: 45°   Visibility: 5mi
Dew Point: 41°   Wind: 6mph
Humidity: 87%   Direction: 60°ENE
Pressure: 30.14"   Gusts: NA
Location:  33.57°N, 96°W
Report Text: KPRX 182015Z 06005KT 5SM OVC004 07/05 A3014 RMK AO1
Loading
Personal Weather Stations






























Interactive Weather Map New forecast layout! Learn more

10-Day Weather Forecast

Advertisements
Track Severe Weather on mobile